sensor_id;sensor_type;location;lat;lon;timestamp;P1;durP1;ratioP1;P2;durP2;ratioP2
5054;SDS011;13829;48.990;8.346;2023-08-12T00:01:53;7.70;;;6.68;;
5054;SDS011;13829;48.990;8.346;2023-08-12T00:04:19;7.10;;;6.40;;
5054;SDS011;13829;48.990;8.346;2023-08-12T00:06:47;7.80;;;6.15;;
5054;SDS011;13829;48.990;8.346;2023-08-12T00:09:14;7.38;;;6.65;;
5054;SDS011;13829;48.990;8.346;2023-08-12T00:11:41;7.25;;;6.50;;
5054;SDS011;13829;48.990;8.346;2023-08-12T00:14:09;9.60;;;7.65;;
5054;SDS011;13829;48.990;8.346;2023-08-12T00:16:36;8.75;;;7.32;;
5054;SDS011;13829;48.990;8.346;2023-08-12T00:19:03;9.43;;;8.00;;
5054;SDS011;13829;48.990;8.346;2023-08-12T00:21:30;9.20;;;8.02;;
5054;SDS011;13829;48.990;8.346;2023-08-12T00:23:57;10.90;;;8.57;;
5054;SDS011;13829;48.990;8.346;2023-08-12T00:26:24;8.93;;;8.02;;
5054;SDS011;13829;48.990;8.346;2023-08-12T00:28:52;10.13;;;7.35;;
5054;SDS011;13829;48.990;8.346;2023-08-12T00:31:20;13.57;;;8.38;;
5054;SDS011;13829;48.990;8.346;2023-08-12T00:33:47;9.75;;;7.68;;
5054;SDS011;13829;48.990;8.346;2023-08-12T00:36:14;8.93;;;8.00;;
5054;SDS011;13829;48.990;8.346;2023-08-12T00:38:40;9.55;;;8.38;;
5054;SDS011;13829;48.990;8.346;2023-08-12T00:41:07;8.43;;;7.60;;
5054;SDS011;13829;48.990;8.346;2023-08-12T00:43:34;11.45;;;8.10;;
5054;SDS011;13829;48.990;8.346;2023-08-12T00:46:01;8.73;;;7.50;;
5054;SDS011;13829;48.990;8.346;2023-08-12T00:48:29;9.68;;;7.28;;
5054;SDS011;13829;48.990;8.346;2023-08-12T00:50:56;8.07;;;7.25;;
5054;SDS011;13829;48.990;8.346;2023-08-12T00:53:23;12.25;;;8.10;;
5054;SDS011;13829;48.990;8.346;2023-08-12T00:55:50;8.50;;;7.30;;
5054;SDS011;13829;48.990;8.346;2023-08-12T00:58:17;8.45;;;7.43;;
5054;SDS011;13829;48.990;8.346;2023-08-12T01:00:44;9.20;;;7.88;;
5054;SDS011;13829;48.990;8.346;2023-08-12T01:03:12;10.68;;;9.02;;
5054;SDS011;13829;48.990;8.346;2023-08-12T01:05:40;9.65;;;8.75;;
5054;SDS011;13829;48.990;8.346;2023-08-12T01:08:08;9.18;;;8.25;;
5054;SDS011;13829;48.990;8.346;2023-08-12T01:10:35;9.95;;;8.30;;
5054;SDS011;13829;48.990;8.346;2023-08-12T01:13:11;12.43;;;7.90;;
5054;SDS011;13829;48.990;8.346;2023-08-12T01:15:49;10.57;;;8.18;;
5054;SDS011;13829;48.990;8.346;2023-08-12T01:18:21;10.32;;;8.35;;
5054;SDS011;13829;48.990;8.346;2023-08-12T01:20:53;8.73;;;7.82;;
5054;SDS011;13829;48.990;8.346;2023-08-12T01:23:21;9.48;;;7.45;;
5054;SDS011;13829;48.990;8.346;2023-08-12T01:25:49;9.02;;;6.95;;
5054;SDS011;13829;48.990;8.346;2023-08-12T01:28:16;7.32;;;6.60;;
5054;SDS011;13829;48.990;8.346;2023-08-12T01:30:50;9.18;;;6.32;;
5054;SDS011;13829;48.990;8.346;2023-08-12T01:33:25;7.88;;;6.80;;
5054;SDS011;13829;48.990;8.346;2023-08-12T01:36:04;8.68;;;6.70;;
5054;SDS011;13829;48.990;8.346;2023-08-12T01:38:40;7.88;;;6.88;;
5054;SDS011;13829;48.990;8.346;2023-08-12T01:41:09;9.30;;;7.25;;
5054;SDS011;13829;48.990;8.346;2023-08-12T01:43:38;8.10;;;7.30;;
5054;SDS011;13829;48.990;8.346;2023-08-12T01:46:07;8.27;;;7.47;;
5054;SDS011;13829;48.990;8.346;2023-08-12T01:48:35;9.40;;;7.97;;
5054;SDS011;13829;48.990;8.346;2023-08-12T01:51:02;8.52;;;7.15;;
5054;SDS011;13829;48.990;8.346;2023-08-12T01:53:29;7.95;;;7.15;;
5054;SDS011;13829;48.990;8.346;2023-08-12T01:55:58;7.95;;;7.15;;
5054;SDS011;13829;48.990;8.346;2023-08-12T01:58:25;7.90;;;6.90;;
5054;SDS011;13829;48.990;8.346;2023-08-12T02:00:52;6.65;;;5.78;;
5054;SDS011;13829;48.990;8.346;2023-08-12T02:03:19;6.68;;;6.07;;
5054;SDS011;13829;48.990;8.346;2023-08-12T02:05:46;7.15;;;5.95;;
5054;SDS011;13829;48.990;8.346;2023-08-12T02:08:13;8.25;;;6.30;;
5054;SDS011;13829;48.990;8.346;2023-08-12T02:10:40;9.35;;;6.03;;
5054;SDS011;13829;48.990;8.346;2023-08-12T02:13:08;6.50;;;5.32;;
5054;SDS011;13829;48.990;8.346;2023-08-12T02:15:35;6.35;;;5.78;;
5054;SDS011;13829;48.990;8.346;2023-08-12T02:18:03;6.47;;;5.30;;
5054;SDS011;13829;48.990;8.346;2023-08-12T02:20:30;7.38;;;5.53;;
5054;SDS011;13829;48.990;8.346;2023-08-12T02:22:57;6.25;;;5.65;;
5054;SDS011;13829;48.990;8.346;2023-08-12T02:25:24;6.18;;;4.95;;
5054;SDS011;13829;48.990;8.346;2023-08-12T02:27:51;5.93;;;5.28;;
5054;SDS011;13829;48.990;8.346;2023-08-12T02:30:19;7.18;;;5.40;;
5054;SDS011;13829;48.990;8.346;2023-08-12T02:32:46;5.80;;;5.22;;
5054;SDS011;13829;48.990;8.346;2023-08-12T02:35:14;6.35;;;5.40;;
5054;SDS011;13829;48.990;8.346;2023-08-12T02:37:41;7.65;;;5.82;;
5054;SDS011;13829;48.990;8.346;2023-08-12T02:40:09;7.05;;;5.32;;
5054;SDS011;13829;48.990;8.346;2023-08-12T02:42:36;5.95;;;5.20;;
5054;SDS011;13829;48.990;8.346;2023-08-12T02:45:04;5.97;;;5.38;;
5054;SDS011;13829;48.990;8.346;2023-08-12T02:47:33;9.10;;;6.22;;
5054;SDS011;13829;48.990;8.346;2023-08-12T02:50:00;8.15;;;6.28;;
5054;SDS011;13829;48.990;8.346;2023-08-12T02:52:27;5.90;;;5.28;;
5054;SDS011;13829;48.990;8.346;2023-08-12T02:54:54;6.05;;;5.20;;
5054;SDS011;13829;48.990;8.346;2023-08-12T02:57:21;7.95;;;5.43;;
5054;SDS011;13829;48.990;8.346;2023-08-12T02:59:48;6.78;;;6.10;;
5054;SDS011;13829;48.990;8.346;2023-08-12T03:02:15;6.38;;;5.80;;
5054;SDS011;13829;48.990;8.346;2023-08-12T03:04:43;6.07;;;5.57;;
5054;SDS011;13829;48.990;8.346;2023-08-12T03:07:10;5.93;;;5.32;;
5054;SDS011;13829;48.990;8.346;2023-08-12T03:09:37;6.30;;;5.75;;
5054;SDS011;13829;48.990;8.346;2023-08-12T03:12:04;6.10;;;5.50;;
5054;SDS011;13829;48.990;8.346;2023-08-12T03:14:33;6.32;;;5.72;;
5054;SDS011;13829;48.990;8.346;2023-08-12T03:17:00;6.13;;;5.57;;
5054;SDS011;13829;48.990;8.346;2023-08-12T03:19:27;10.93;;;5.97;;
5054;SDS011;13829;48.990;8.346;2023-08-12T03:21:55;6.72;;;6.05;;
5054;SDS011;13829;48.990;8.346;2023-08-12T03:24:22;6.38;;;5.78;;
5054;SDS011;13829;48.990;8.346;2023-08-12T03:26:49;5.70;;;5.20;;
5054;SDS011;13829;48.990;8.346;2023-08-12T03:29:16;7.07;;;6.20;;
5054;SDS011;13829;48.990;8.346;2023-08-12T03:31:43;6.03;;;5.53;;
5054;SDS011;13829;48.990;8.346;2023-08-12T03:34:10;5.82;;;5.32;;
5054;SDS011;13829;48.990;8.346;2023-08-12T03:36:37;5.95;;;5.32;;
5054;SDS011;13829;48.990;8.346;2023-08-12T03:39:05;6.53;;;5.45;;
5054;SDS011;13829;48.990;8.346;2023-08-12T03:41:32;6.45;;;5.68;;
5054;SDS011;13829;48.990;8.346;2023-08-12T03:43:59;5.93;;;5.13;;
5054;SDS011;13829;48.990;8.346;2023-08-12T03:46:26;7.10;;;6.03;;
5054;SDS011;13829;48.990;8.346;2023-08-12T03:48:53;6.43;;;5.82;;
5054;SDS011;13829;48.990;8.346;2023-08-12T03:51:19;6.55;;;5.95;;
5054;SDS011;13829;48.990;8.346;2023-08-12T03:53:47;6.57;;;5.80;;
5054;SDS011;13829;48.990;8.346;2023-08-12T03:56:15;6.38;;;5.82;;
5054;SDS011;13829;48.990;8.346;2023-08-12T03:58:42;5.43;;;4.85;;
5054;SDS011;13829;48.990;8.346;2023-08-12T04:01:09;6.15;;;5.57;;
5054;SDS011;13829;48.990;8.346;2023-08-12T04:03:36;6.88;;;5.45;;
5054;SDS011;13829;48.990;8.346;2023-08-12T04:06:03;8.13;;;5.40;;
5054;SDS011;13829;48.990;8.346;2023-08-12T04:08:30;7.85;;;5.97;;
5054;SDS011;13829;48.990;8.346;2023-08-12T04:10:58;5.80;;;5.03;;
5054;SDS011;13829;48.990;8.346;2023-08-12T04:13:26;5.47;;;4.97;;
5054;SDS011;13829;48.990;8.346;2023-08-12T04:15:53;7.63;;;5.95;;
5054;SDS011;13829;48.990;8.346;2023-08-12T04:18:20;6.57;;;5.47;;
5054;SDS011;13829;48.990;8.346;2023-08-12T04:20:48;5.82;;;5.18;;
5054;SDS011;13829;48.990;8.346;2023-08-12T04:23:16;5.10;;;4.60;;
5054;SDS011;13829;48.990;8.346;2023-08-12T04:25:44;4.70;;;4.30;;
5054;SDS011;13829;48.990;8.346;2023-08-12T04:28:12;5.38;;;4.50;;
5054;SDS011;13829;48.990;8.346;2023-08-12T04:30:44;4.95;;;4.47;;
5054;SDS011;13829;48.990;8.346;2023-08-12T04:33:13;5.10;;;4.55;;
5054;SDS011;13829;48.990;8.346;2023-08-12T04:35:40;4.78;;;4.38;;
5054;SDS011;13829;48.990;8.346;2023-08-12T04:38:08;5.28;;;4.78;;
5054;SDS011;13829;48.990;8.346;2023-08-12T04:40:37;4.63;;;4.22;;
5054;SDS011;13829;48.990;8.346;2023-08-12T04:43:04;5.55;;;4.97;;
5054;SDS011;13829;48.990;8.346;2023-08-12T04:45:32;6.53;;;5.00;;
5054;SDS011;13829;48.990;8.346;2023-08-12T04:48:00;4.90;;;4.50;;
5054;SDS011;13829;48.990;8.346;2023-08-12T04:50:29;6.28;;;5.05;;
5054;SDS011;13829;48.990;8.346;2023-08-12T04:52:56;6.30;;;5.70;;
5054;SDS011;13829;48.990;8.346;2023-08-12T04:55:24;6.22;;;5.63;;
5054;SDS011;13829;48.990;8.346;2023-08-12T04:57:52;6.15;;;5.55;;
5054;SDS011;13829;48.990;8.346;2023-08-12T05:00:19;6.38;;;4.82;;
5054;SDS011;13829;48.990;8.346;2023-08-12T05:02:46;5.75;;;5.25;;
5054;SDS011;13829;48.990;8.346;2023-08-12T05:05:15;5.20;;;4.72;;
5054;SDS011;13829;48.990;8.346;2023-08-12T05:07:42;5.50;;;5.07;;
5054;SDS011;13829;48.990;8.346;2023-08-12T05:10:13;6.18;;;5.57;;
5054;SDS011;13829;48.990;8.346;2023-08-12T05:12:41;5.60;;;4.68;;
5054;SDS011;13829;48.990;8.346;2023-08-12T05:15:09;5.20;;;4.80;;
5054;SDS011;13829;48.990;8.346;2023-08-12T05:17:36;5.25;;;4.75;;
5054;SDS011;13829;48.990;8.346;2023-08-12T05:20:03;5.53;;;4.90;;
5054;SDS011;13829;48.990;8.346;2023-08-12T05:22:33;6.75;;;5.85;;
5054;SDS011;13829;48.990;8.346;2023-08-12T05:25:00;5.40;;;4.90;;
5054;SDS011;13829;48.990;8.346;2023-08-12T05:27:27;5.97;;;5.40;;
5054;SDS011;13829;48.990;8.346;2023-08-12T05:29:54;7.40;;;5.63;;
5054;SDS011;13829;48.990;8.346;2023-08-12T05:32:21;5.45;;;4.88;;
5054;SDS011;13829;48.990;8.346;2023-08-12T05:34:49;7.40;;;5.32;;
5054;SDS011;13829;48.990;8.346;2023-08-12T05:37:16;7.03;;;5.13;;
5054;SDS011;13829;48.990;8.346;2023-08-12T05:39:45;6.53;;;5.55;;
5054;SDS011;13829;48.990;8.346;2023-08-12T05:42:12;10.25;;;5.80;;
5054;SDS011;13829;48.990;8.346;2023-08-12T05:44:40;8.40;;;5.90;;
5054;SDS011;13829;48.990;8.346;2023-08-12T05:47:08;7.70;;;5.63;;
5054;SDS011;13829;48.990;8.346;2023-08-12T05:49:35;8.20;;;5.95;;
5054;SDS011;13829;48.990;8.346;2023-08-12T05:52:02;5.35;;;4.85;;
5054;SDS011;13829;48.990;8.346;2023-08-12T05:54:29;6.43;;;5.50;;
5054;SDS011;13829;48.990;8.346;2023-08-12T05:56:58;8.23;;;5.50;;
5054;SDS011;13829;48.990;8.346;2023-08-12T05:59:25;8.88;;;5.68;;
5054;SDS011;13829;48.990;8.346;2023-08-12T06:01:52;5.80;;;4.90;;
5054;SDS011;13829;48.990;8.346;2023-08-12T06:04:19;8.60;;;5.22;;
5054;SDS011;13829;48.990;8.346;2023-08-12T06:06:46;6.25;;;5.65;;
5054;SDS011;13829;48.990;8.346;2023-08-12T06:09:13;6.50;;;5.90;;
5054;SDS011;13829;48.990;8.346;2023-08-12T06:11:40;7.53;;;5.75;;
5054;SDS011;13829;48.990;8.346;2023-08-12T06:14:09;7.30;;;6.13;;
5054;SDS011;13829;48.990;8.346;2023-08-12T06:16:36;8.25;;;5.95;;
5054;SDS011;13829;48.990;8.346;2023-08-12T06:19:03;7.57;;;5.68;;
5054;SDS011;13829;48.990;8.346;2023-08-12T06:21:30;7.90;;;5.82;;
5054;SDS011;13829;48.990;8.346;2023-08-12T06:23:57;6.20;;;5.25;;
5054;SDS011;13829;48.990;8.346;2023-08-12T06:26:24;6.28;;;5.43;;
5054;SDS011;13829;48.990;8.346;2023-08-12T06:28:51;7.97;;;5.95;;
5054;SDS011;13829;48.990;8.346;2023-08-12T06:31:19;6.57;;;5.20;;
5054;SDS011;13829;48.990;8.346;2023-08-12T06:33:46;5.45;;;4.95;;
5054;SDS011;13829;48.990;8.346;2023-08-12T06:36:13;7.75;;;5.20;;
5054;SDS011;13829;48.990;8.346;2023-08-12T06:38:40;6.85;;;5.85;;
5054;SDS011;13829;48.990;8.346;2023-08-12T06:41:06;6.22;;;5.40;;
5054;SDS011;13829;48.990;8.346;2023-08-12T06:43:33;7.43;;;5.32;;
5054;SDS011;13829;48.990;8.346;2023-08-12T06:46:00;6.63;;;5.82;;
5054;SDS011;13829;48.990;8.346;2023-08-12T06:48:29;5.82;;;5.22;;
5054;SDS011;13829;48.990;8.346;2023-08-12T06:50:56;7.43;;;5.43;;
5054;SDS011;13829;48.990;8.346;2023-08-12T06:53:24;6.53;;;5.72;;
5054;SDS011;13829;48.990;8.346;2023-08-12T06:55:52;9.13;;;5.10;;
5054;SDS011;13829;48.990;8.346;2023-08-12T06:58:19;5.57;;;4.90;;
5054;SDS011;13829;48.990;8.346;2023-08-12T07:00:46;6.53;;;5.10;;
5054;SDS011;13829;48.990;8.346;2023-08-12T07:03:13;6.80;;;5.55;;
5054;SDS011;13829;48.990;8.346;2023-08-12T07:05:42;9.18;;;5.18;;
5054;SDS011;13829;48.990;8.346;2023-08-12T07:08:08;6.85;;;5.20;;
5054;SDS011;13829;48.990;8.346;2023-08-12T07:10:37;6.88;;;5.28;;
5054;SDS011;13829;48.990;8.346;2023-08-12T07:13:04;5.55;;;4.97;;
5054;SDS011;13829;48.990;8.346;2023-08-12T07:15:31;7.43;;;5.57;;
5054;SDS011;13829;48.990;8.346;2023-08-12T07:17:58;5.90;;;5.30;;
5054;SDS011;13829;48.990;8.346;2023-08-12T07:20:25;9.45;;;5.68;;
5054;SDS011;13829;48.990;8.346;2023-08-12T07:22:54;6.43;;;4.90;;
5054;SDS011;13829;48.990;8.346;2023-08-12T07:25:21;7.22;;;4.93;;
5054;SDS011;13829;48.990;8.346;2023-08-12T07:27:48;10.23;;;5.25;;
5054;SDS011;13829;48.990;8.346;2023-08-12T07:30:15;6.22;;;5.35;;
5054;SDS011;13829;48.990;8.346;2023-08-12T07:32:42;7.25;;;5.30;;
5054;SDS011;13829;48.990;8.346;2023-08-12T07:35:09;8.82;;;5.07;;
5054;SDS011;13829;48.990;8.346;2023-08-12T07:37:36;6.32;;;5.10;;
5054;SDS011;13829;48.990;8.346;2023-08-12T07:40:04;6.55;;;4.90;;
5054;SDS011;13829;48.990;8.346;2023-08-12T07:42:33;6.90;;;4.47;;
5054;SDS011;13829;48.990;8.346;2023-08-12T07:45:00;7.25;;;4.93;;
5054;SDS011;13829;48.990;8.346;2023-08-12T07:47:27;5.63;;;4.80;;
5054;SDS011;13829;48.990;8.346;2023-08-12T07:49:54;6.78;;;4.95;;
5054;SDS011;13829;48.990;8.346;2023-08-12T07:52:21;6.63;;;4.78;;
5054;SDS011;13829;48.990;8.346;2023-08-12T07:54:48;6.55;;;5.07;;
5054;SDS011;13829;48.990;8.346;2023-08-12T07:57:17;7.32;;;5.25;;
5054;SDS011;13829;48.990;8.346;2023-08-12T07:59:45;5.00;;;4.50;;
5054;SDS011;13829;48.990;8.346;2023-08-12T08:02:12;9.45;;;4.63;;
5054;SDS011;13829;48.990;8.346;2023-08-12T08:04:39;7.32;;;4.95;;
5054;SDS011;13829;48.990;8.346;2023-08-12T08:07:06;6.28;;;4.22;;
5054;SDS011;13829;48.990;8.346;2023-08-12T08:09:33;5.38;;;4.30;;
5054;SDS011;13829;48.990;8.346;2023-08-12T08:12:01;7.93;;;4.43;;
5054;SDS011;13829;48.990;8.346;2023-08-12T08:14:30;5.20;;;4.70;;
5054;SDS011;13829;48.990;8.346;2023-08-12T08:16:57;7.70;;;4.05;;
5054;SDS011;13829;48.990;8.346;2023-08-12T08:19:24;6.18;;;4.28;;
5054;SDS011;13829;48.990;8.346;2023-08-12T08:21:52;4.93;;;4.15;;
5054;SDS011;13829;48.990;8.346;2023-08-12T08:24:19;5.28;;;4.30;;
5054;SDS011;13829;48.990;8.346;2023-08-12T08:26:46;6.60;;;4.47;;
5054;SDS011;13829;48.990;8.346;2023-08-12T08:29:13;9.30;;;4.00;;
5054;SDS011;13829;48.990;8.346;2023-08-12T08:31:41;5.30;;;4.30;;
5054;SDS011;13829;48.990;8.346;2023-08-12T08:34:08;8.15;;;4.75;;
5054;SDS011;13829;48.990;8.346;2023-08-12T08:36:35;5.43;;;3.60;;
5054;SDS011;13829;48.990;8.346;2023-08-12T08:39:02;7.05;;;3.97;;
5054;SDS011;13829;48.990;8.346;2023-08-12T08:41:31;4.90;;;4.50;;
5054;SDS011;13829;48.990;8.346;2023-08-12T08:44:03;4.97;;;4.32;;
5054;SDS011;13829;48.990;8.346;2023-08-12T08:46:34;5.78;;;4.10;;
5054;SDS011;13829;48.990;8.346;2023-08-12T08:49:03;7.20;;;4.57;;
5054;SDS011;13829;48.990;8.346;2023-08-12T08:51:32;5.22;;;4.32;;
5054;SDS011;13829;48.990;8.346;2023-08-12T08:53:59;6.30;;;4.55;;
5054;SDS011;13829;48.990;8.346;2023-08-12T08:56:30;7.03;;;4.43;;
5054;SDS011;13829;48.990;8.346;2023-08-12T08:58:58;5.28;;;4.80;;
5054;SDS011;13829;48.990;8.346;2023-08-12T09:01:25;5.40;;;4.43;;
5054;SDS011;13829;48.990;8.346;2023-08-12T09:03:54;4.90;;;4.40;;
5054;SDS011;13829;48.990;8.346;2023-08-12T09:06:25;5.13;;;4.63;;
5054;SDS011;13829;48.990;8.346;2023-08-12T09:08:54;6.85;;;4.60;;
5054;SDS011;13829;48.990;8.346;2023-08-12T09:11:22;7.25;;;4.63;;
5054;SDS011;13829;48.990;8.346;2023-08-12T09:13:50;9.27;;;5.22;;
5054;SDS011;13829;48.990;8.346;2023-08-12T09:16:17;5.32;;;4.18;;
5054;SDS011;13829;48.990;8.346;2023-08-12T09:18:44;5.32;;;4.45;;
5054;SDS011;13829;48.990;8.346;2023-08-12T09:21:11;6.97;;;4.55;;
5054;SDS011;13829;48.990;8.346;2023-08-12T09:23:39;7.47;;;5.13;;
5054;SDS011;13829;48.990;8.346;2023-08-12T09:26:15;6.78;;;5.25;;
5054;SDS011;13829;48.990;8.346;2023-08-12T09:28:44;6.32;;;5.15;;
5054;SDS011;13829;48.990;8.346;2023-08-12T09:31:21;8.23;;;4.97;;
5054;SDS011;13829;48.990;8.346;2023-08-12T09:33:50;9.38;;;4.72;;
5054;SDS011;13829;48.990;8.346;2023-08-12T09:36:17;6.95;;;5.22;;
5054;SDS011;13829;48.990;8.346;2023-08-12T09:38:48;6.55;;;5.40;;
5054;SDS011;13829;48.990;8.346;2023-08-12T09:41:15;8.50;;;5.45;;
5054;SDS011;13829;48.990;8.346;2023-08-12T09:43:42;9.27;;;4.43;;
5054;SDS011;13829;48.990;8.346;2023-08-12T09:46:12;5.85;;;5.20;;
5054;SDS011;13829;48.990;8.346;2023-08-12T09:48:40;5.93;;;5.32;;
5054;SDS011;13829;48.990;8.346;2023-08-12T09:51:07;6.78;;;5.30;;
5054;SDS011;13829;48.990;8.346;2023-08-12T09:53:35;6.82;;;5.10;;
5054;SDS011;13829;48.990;8.346;2023-08-12T09:56:05;5.95;;;4.72;;
5054;SDS011;13829;48.990;8.346;2023-08-12T09:58:35;7.20;;;4.95;;
5054;SDS011;13829;48.990;8.346;2023-08-12T10:01:03;5.65;;;4.50;;
5054;SDS011;13829;48.990;8.346;2023-08-12T10:03:32;6.25;;;4.72;;
5054;SDS011;13829;48.990;8.346;2023-08-12T10:06:00;7.25;;;4.93;;
5054;SDS011;13829;48.990;8.346;2023-08-12T10:08:28;5.28;;;4.70;;
5054;SDS011;13829;48.990;8.346;2023-08-12T10:10:55;5.28;;;4.18;;
5054;SDS011;13829;48.990;8.346;2023-08-12T10:13:24;5.13;;;4.13;;
5054;SDS011;13829;48.990;8.346;2023-08-12T10:15:51;4.93;;;4.20;;
5054;SDS011;13829;48.990;8.346;2023-08-12T10:18:19;5.78;;;4.70;;
5054;SDS011;13829;48.990;8.346;2023-08-12T10:20:48;5.78;;;4.32;;
5054;SDS011;13829;48.990;8.346;2023-08-12T10:23:17;6.93;;;5.03;;
5054;SDS011;13829;48.990;8.346;2023-08-12T10:25:44;6.18;;;4.90;;
5054;SDS011;13829;48.990;8.346;2023-08-12T10:28:11;9.00;;;4.90;;
5054;SDS011;13829;48.990;8.346;2023-08-12T10:30:40;9.57;;;5.18;;
5054;SDS011;13829;48.990;8.346;2023-08-12T10:33:08;8.52;;;4.65;;
5054;SDS011;13829;48.990;8.346;2023-08-12T10:35:43;6.32;;;4.63;;
5054;SDS011;13829;48.990;8.346;2023-08-12T10:38:12;6.97;;;4.50;;
5054;SDS011;13829;48.990;8.346;2023-08-12T10:40:43;6.53;;;4.75;;
5054;SDS011;13829;48.990;8.346;2023-08-12T10:43:11;4.78;;;4.38;;
5054;SDS011;13829;48.990;8.346;2023-08-12T10:45:42;5.47;;;4.80;;
5054;SDS011;13829;48.990;8.346;2023-08-12T10:48:16;8.77;;;4.53;;
5054;SDS011;13829;48.990;8.346;2023-08-12T10:50:46;5.07;;;4.53;;
5054;SDS011;13829;48.990;8.346;2023-08-12T10:53:22;6.43;;;5.00;;
5054;SDS011;13829;48.990;8.346;2023-08-12T10:55:54;7.53;;;5.20;;
5054;SDS011;13829;48.990;8.346;2023-08-12T10:58:24;9.90;;;5.85;;
5054;SDS011;13829;48.990;8.346;2023-08-12T11:00:55;7.47;;;5.15;;
5054;SDS011;13829;48.990;8.346;2023-08-12T11:03:23;8.25;;;5.95;;
5054;SDS011;13829;48.990;8.346;2023-08-12T11:05:50;9.63;;;5.78;;
5054;SDS011;13829;48.990;8.346;2023-08-12T11:08:24;7.07;;;5.70;;
5054;SDS011;13829;48.990;8.346;2023-08-12T11:10:54;9.30;;;5.90;;
5054;SDS011;13829;48.990;8.346;2023-08-12T11:13:23;10.35;;;6.53;;
5054;SDS011;13829;48.990;8.346;2023-08-12T11:16:04;7.90;;;7.03;;
5054;SDS011;13829;48.990;8.346;2023-08-12T11:18:33;7.93;;;6.90;;
5054;SDS011;13829;48.990;8.346;2023-08-12T11:21:01;10.75;;;7.68;;
5054;SDS011;13829;48.990;8.346;2023-08-12T11:23:30;7.95;;;6.78;;
5054;SDS011;13829;48.990;8.346;2023-08-12T11:25:58;10.00;;;7.10;;
5054;SDS011;13829;48.990;8.346;2023-08-12T11:28:26;8.57;;;6.90;;
5054;SDS011;13829;48.990;8.346;2023-08-12T11:30:53;6.88;;;6.25;;
5054;SDS011;13829;48.990;8.346;2023-08-12T11:33:23;7.20;;;6.50;;
5054;SDS011;13829;48.990;8.346;2023-08-12T11:35:50;9.30;;;7.03;;
5054;SDS011;13829;48.990;8.346;2023-08-12T11:38:17;7.20;;;5.78;;
5054;SDS011;13829;48.990;8.346;2023-08-12T11:40:44;6.45;;;5.82;;
5054;SDS011;13829;48.990;8.346;2023-08-12T11:43:11;7.72;;;5.40;;
5054;SDS011;13829;48.990;8.346;2023-08-12T11:45:41;6.63;;;5.93;;
5054;SDS011;13829;48.990;8.346;2023-08-12T11:48:09;6.45;;;5.57;;
5054;SDS011;13829;48.990;8.346;2023-08-12T11:50:37;6.82;;;5.68;;
5054;SDS011;13829;48.990;8.346;2023-08-12T11:53:05;7.40;;;5.22;;
5054;SDS011;13829;48.990;8.346;2023-08-12T11:55:33;7.35;;;5.30;;
5054;SDS011;13829;48.990;8.346;2023-08-12T11:58:00;7.30;;;5.15;;
5054;SDS011;13829;48.990;8.346;2023-08-12T12:00:27;7.53;;;4.90;;
5054;SDS011;13829;48.990;8.346;2023-08-12T12:02:55;6.00;;;5.22;;
5054;SDS011;13829;48.990;8.346;2023-08-12T12:05:23;6.85;;;5.25;;
5054;SDS011;13829;48.990;8.346;2023-08-12T12:07:56;7.85;;;5.43;;
5054;SDS011;13829;48.990;8.346;2023-08-12T12:10:26;5.72;;;4.63;;
5054;SDS011;13829;48.990;8.346;2023-08-12T12:12:54;9.35;;;5.72;;
5054;SDS011;13829;48.990;8.346;2023-08-12T12:15:24;6.70;;;5.90;;
5054;SDS011;13829;48.990;8.346;2023-08-12T12:17:51;9.10;;;6.18;;
5054;SDS011;13829;48.990;8.346;2023-08-12T12:20:19;7.07;;;5.57;;
5054;SDS011;13829;48.990;8.346;2023-08-12T12:22:46;8.95;;;6.68;;
5054;SDS011;13829;48.990;8.346;2023-08-12T12:25:16;8.13;;;6.70;;
5054;SDS011;13829;48.990;8.346;2023-08-12T12:27:45;7.50;;;6.25;;
5054;SDS011;13829;48.990;8.346;2023-08-12T12:30:13;6.60;;;6.00;;
5054;SDS011;13829;48.990;8.346;2023-08-12T12:32:42;7.40;;;5.75;;
5054;SDS011;13829;48.990;8.346;2023-08-12T12:35:10;7.53;;;6.30;;
5054;SDS011;13829;48.990;8.346;2023-08-12T12:37:36;6.47;;;5.70;;
5054;SDS011;13829;48.990;8.346;2023-08-12T12:40:04;7.60;;;6.30;;
5054;SDS011;13829;48.990;8.346;2023-08-12T12:42:34;7.55;;;6.40;;
5054;SDS011;13829;48.990;8.346;2023-08-12T12:45:01;6.05;;;5.22;;
5054;SDS011;13829;48.990;8.346;2023-08-12T12:47:29;6.05;;;5.30;;
5054;SDS011;13829;48.990;8.346;2023-08-12T12:49:56;7.90;;;5.50;;
5054;SDS011;13829;48.990;8.346;2023-08-12T12:52:23;6.03;;;4.88;;
5054;SDS011;13829;48.990;8.346;2023-08-12T12:54:50;5.18;;;4.60;;
5054;SDS011;13829;48.990;8.346;2023-08-12T12:57:17;4.57;;;4.18;;
5054;SDS011;13829;48.990;8.346;2023-08-12T12:59:45;8.18;;;4.38;;
5054;SDS011;13829;48.990;8.346;2023-08-12T13:02:13;6.00;;;4.43;;
5054;SDS011;13829;48.990;8.346;2023-08-12T13:04:40;6.72;;;4.85;;
5054;SDS011;13829;48.990;8.346;2023-08-12T13:07:07;5.53;;;4.95;;
5054;SDS011;13829;48.990;8.346;2023-08-12T13:09:34;5.70;;;4.65;;
5054;SDS011;13829;48.990;8.346;2023-08-12T13:12:02;6.70;;;5.00;;
5054;SDS011;13829;48.990;8.346;2023-08-12T13:14:29;5.95;;;4.75;;
5054;SDS011;13829;48.990;8.346;2023-08-12T13:16:57;5.65;;;5.05;;
5054;SDS011;13829;48.990;8.346;2023-08-12T13:19:24;5.95;;;4.60;;
5054;SDS011;13829;48.990;8.346;2023-08-12T13:21:51;4.32;;;3.88;;
5054;SDS011;13829;48.990;8.346;2023-08-12T13:24:18;7.00;;;4.40;;
5054;SDS011;13829;48.990;8.346;2023-08-12T13:26:45;6.60;;;4.10;;
5054;SDS011;13829;48.990;8.346;2023-08-12T13:29:12;4.90;;;4.32;;
5054;SDS011;13829;48.990;8.346;2023-08-12T13:31:39;5.15;;;4.47;;
5054;SDS011;13829;48.990;8.346;2023-08-12T13:34:07;5.47;;;4.70;;
5054;SDS011;13829;48.990;8.346;2023-08-12T13:36:34;4.65;;;4.03;;
5054;SDS011;13829;48.990;8.346;2023-08-12T13:39:01;6.28;;;4.68;;
5054;SDS011;13829;48.990;8.346;2023-08-12T13:41:28;6.45;;;4.28;;
5054;SDS011;13829;48.990;8.346;2023-08-12T13:43:55;4.88;;;4.43;;
5054;SDS011;13829;48.990;8.346;2023-08-12T13:46:22;4.55;;;4.10;;
5054;SDS011;13829;48.990;8.346;2023-08-12T13:48:49;7.28;;;4.70;;
5054;SDS011;13829;48.990;8.346;2023-08-12T13:51:17;5.03;;;4.45;;
5054;SDS011;13829;48.990;8.346;2023-08-12T13:53:44;8.43;;;4.22;;
5054;SDS011;13829;48.990;8.346;2023-08-12T13:56:11;6.53;;;4.38;;
5054;SDS011;13829;48.990;8.346;2023-08-12T13:58:38;4.50;;;4.10;;
5054;SDS011;13829;48.990;8.346;2023-08-12T14:01:05;5.38;;;4.45;;
5054;SDS011;13829;48.990;8.346;2023-08-12T14:03:33;6.80;;;5.07;;
5054;SDS011;13829;48.990;8.346;2023-08-12T14:06:00;4.70;;;4.30;;
5054;SDS011;13829;48.990;8.346;2023-08-12T14:08:28;5.85;;;4.60;;
5054;SDS011;13829;48.990;8.346;2023-08-12T14:10:56;5.97;;;4.60;;
5054;SDS011;13829;48.990;8.346;2023-08-12T14:13:23;8.93;;;5.20;;
5054;SDS011;13829;48.990;8.346;2023-08-12T14:15:49;7.95;;;5.00;;
5054;SDS011;13829;48.990;8.346;2023-08-12T14:18:16;5.85;;;4.70;;
5054;SDS011;13829;48.990;8.346;2023-08-12T14:20:43;4.97;;;4.45;;
5054;SDS011;13829;48.990;8.346;2023-08-12T14:23:10;6.13;;;4.45;;
5054;SDS011;13829;48.990;8.346;2023-08-12T14:25:39;5.43;;;4.93;;
5054;SDS011;13829;48.990;8.346;2023-08-12T14:28:06;7.68;;;6.63;;
5054;SDS011;13829;48.990;8.346;2023-08-12T14:30:33;6.40;;;5.75;;
5054;SDS011;13829;48.990;8.346;2023-08-12T14:32:59;6.35;;;5.35;;
5054;SDS011;13829;48.990;8.346;2023-08-12T14:35:26;6.90;;;6.10;;
5054;SDS011;13829;48.990;8.346;2023-08-12T14:37:53;12.75;;;7.68;;
5054;SDS011;13829;48.990;8.346;2023-08-12T14:40:20;11.93;;;7.78;;
5054;SDS011;13829;48.990;8.346;2023-08-12T14:42:48;20.45;;;9.15;;
5054;SDS011;13829;48.990;8.346;2023-08-12T14:45:15;11.52;;;8.20;;
5054;SDS011;13829;48.990;8.346;2023-08-12T14:47:42;16.83;;;8.88;;
5054;SDS011;13829;48.990;8.346;2023-08-12T14:50:09;32.08;;;11.68;;
5054;SDS011;13829;48.990;8.346;2023-08-12T14:52:36;30.02;;;11.65;;
5054;SDS011;13829;48.990;8.346;2023-08-12T14:55:04;12.65;;;8.98;;
5054;SDS011;13829;48.990;8.346;2023-08-12T14:57:31;10.98;;;8.73;;
5054;SDS011;13829;48.990;8.346;2023-08-12T15:00:01;10.40;;;7.68;;
5054;SDS011;13829;48.990;8.346;2023-08-12T15:02:31;11.00;;;7.50;;
5054;SDS011;13829;48.990;8.346;2023-08-12T15:04:59;8.75;;;6.95;;